Airfield :
LOGIN :

Register | Disclaimer

   EN    FR    IT 

 










Legend :    VFR   Marginal VFR   IFR   Intensive IFR   Very Intensive IFR
Visi :
Ceiling :
>= 8 km
>= 3000ft
5 to 8 km
1000 to 3000 ft
1500m to 5 km
500 to 1000 ft
800 to 1500m
200 to 500 ft
< 800m
< 200 ft
Symbols :   Thunderstorms  Fog  Heavy snow  Heavy precipitations  Wind > 20 kt
SIGMETs :     Misc.  Thunderstorms  Icing  Turbulence  Mountain Waves  Volcanic Ashes







- Airport Elevation : 125 ft
- IATA code : MGL


EDLN - Mönchengladbach

CURRENT METAR :
  • 240950Z 18001KT 4000 BR FEW003 14/14 Q1023

EXPIRED METARs :
  • 240920Z VRB01KT 2000 R31/1000V2000U BR SCT002 12/12 Q1023
  • 240850Z VRB01KT 1000 R31/0800V1100N BR VV/// 11/11 Q1023
  • 240820Z 00000KT 0600 R31/0800V1400U FG VV/// 11/11 Q1023
  • 240750Z VRB02KT 0250 R31/0325N FG VV/// 10/10 Q1023
  • 240720Z VRB01KT 0200 R31/0225N FG VV/// 09/09 Q1023

TAF TAF EDLN
Valid from the 24 at 09:00 until the 24 at 18:00 UTC


240800Z 2409/2418 VRB03KT 0900 FG VV001
BECMG 2409/2411 3500 BR
BECMG 2411/2413 9999 FEW035
No reported NOTAMs for that airfield.



MET'MAP, your aeronautical weather chart ! - Copyright ORBIFLY December 2007 - Disclaimer

ORBIFLY MET'MAP TEAM :

Programming & Development : Alexandra Zaïnal
Concept & Development : Baudouin d'Aumeries
Co-Development & Prog : Marc-Olivier Méhu
Technical & hardware support : Manuel Goepfert

Contact : metmap@orbifly.com




SOURCES & CREDITS :

   NOAA